Time;durP1;ratioP1;P1;durP2;ratioP2;P2;SDS_P1;SDS_P2;PMS_P1;PMS_P2;Temp;Humidity;BMP_temperature;BMP_pressure;BME280_temperature;BME280_humidity;BME280_pressure;Samples;Min_cycle;Max_cycle;Signal;HPM_P1;HPM_P2
2023/01/01 00:01:11;;;;;;;18.92;9.10;;;;;;;;;;2110633;28;20028;-70
2023/01/01 00:02:30;;;;;;;19.77;8.35;;;;;;;;;;2111064;28;20031;-70
2023/01/01 00:03:53;;;;;;;18.80;7.93;;;;;;;;;;2111964;28;20043;-70
2023/01/01 00:05:12;;;;;;;;;;;;;;;;;;2113488;28;20107;-70
2023/01/01 00:06:31;;;;;;;19.67;8.48;;;;;;;;;;2110844;28;19907;-70
2023/01/01 00:07:51;;;;;;;19.33;6.75;;;;;;;;;;2110421;28;20040;-70
2023/01/01 00:10:47;;;;;;;15.30;6.25;;;;;;;;;;2111193;28;20102;-69
2023/01/01 00:12:06;;;;;;;18.23;5.93;;;;;;;;;;2102613;28;20115;-69
2023/01/01 00:13:25;;;;;;;18.85;5.90;;;;;;;;;;2107368;28;20031;-69
2023/01/01 00:14:44;;;;;;;13.00;5.13;;;;;;;;;;2102557;28;20449;-69
2023/01/01 00:16:07;;;;;;;17.25;4.97;;;;;;;;;;2106063;28;20043;-69
2023/01/01 00:17:28;;;;;;;14.07;4.72;;;;;;;;;;2109854;28;20044;-69
2023/01/01 00:18:47;;;;;;;9.88;4.03;;;;;;;;;;2111511;27;20115;-69
2023/01/01 00:20:06;;;;;;;14.25;4.38;;;;;;;;;;2110113;28;20023;-69
2023/01/01 00:21:25;;;;;;;14.32;3.78;;;;;;;;;;2101441;28;20040;-69
2023/01/01 00:22:44;;;;;;;10.63;3.03;;;;;;;;;;2108768;28;20032;-69
2023/01/01 00:24:04;;;;;;;12.50;3.70;;;;;;;;;;2112441;28;20470;-70
2023/01/01 00:25:23;;;;;;;16.58;4.20;;;;;;;;;;2111790;28;20019;-69
2023/01/01 00:26:42;;;;;;;16.83;5.07;;;;;;;;;;2100614;28;20395;-69
2023/01/01 00:28:01;;;;;;;27.65;10.82;;;;;;;;;;2107222;28;20027;-69
2023/01/01 00:29:20;;;;;;;12.38;3.60;;;;;;;;;;2111676;28;20028;-70
2023/01/01 00:30:39;;;;;;;16.73;3.78;;;;;;;;;;2110816;28;20665;-71
2023/01/01 00:31:58;;;;;;;12.15;3.15;;;;;;;;;;2110838;28;20020;-71
2023/01/01 00:33:17;;;;;;;15.05;4.00;;;;;;;;;;2110079;28;20032;-69
2023/01/01 00:34:36;;;;;;;13.00;3.60;;;;;;;;;;2111341;28;20547;-69
2023/01/01 00:35:55;;;;;;;13.35;4.45;;;;;;;;;;2111648;28;20036;-69
2023/01/01 00:37:16;;;;;;;11.38;3.60;;;;;;;;;;2101766;28;20034;-69
2023/01/01 00:38:35;;;;;;;15.90;4.30;;;;;;;;;;2107476;28;20025;-69
2023/01/01 00:39:54;;;;;;;12.13;3.03;;;;;;;;;;2100162;28;20060;-69
2023/01/01 00:41:14;;;;;;;16.17;3.45;;;;;;;;;;2108123;28;20071;-71
2023/01/01 00:42:33;;;;;;;12.05;3.65;;;;;;;;;;2111594;28;20025;-70
2023/01/01 00:43:52;;;;;;;12.45;3.67;;;;;;;;;;2110833;28;20031;-70
2023/01/01 00:45:11;;;;;;;8.57;3.15;;;;;;;;;;2112612;28;20053;-69
2023/01/01 00:46:30;;;;;;;13.57;3.10;;;;;;;;;;2110815;28;20442;-70
2023/01/01 00:47:50;;;;;;;11.90;2.90;;;;;;;;;;2099544;28;20036;-70
2023/01/01 00:49:09;;;;;;;12.57;3.17;;;;;;;;;;2107686;28;20395;-69
2023/01/01 00:50:28;;;;;;;12.27;3.92;;;;;;;;;;2111864;28;20065;-70
2023/01/01 00:51:47;;;;;;;8.07;2.70;;;;;;;;;;2110898;28;20063;-69
2023/01/01 00:53:06;;;;;;;10.82;2.90;;;;;;;;;;2110209;28;20507;-68
2023/01/01 00:54:25;;;;;;;12.85;2.83;;;;;;;;;;2111492;28;20031;-70
2023/01/01 00:55:45;;;;;;;9.43;2.63;;;;;;;;;;2103276;28;20028;-70
2023/01/01 00:57:04;;;;;;;8.30;2.42;;;;;;;;;;2107917;28;20044;-71
2023/01/01 00:58:24;;;;;;;12.05;2.72;;;;;;;;;;2101928;28;20040;-70
2023/01/01 00:59:42;;;;;;;12.05;3.25;;;;;;;;;;2108743;28;20023;-71
2023/01/01 01:01:02;;;;;;;6.95;2.80;;;;;;;;;;2111188;28;20031;-70
2023/01/01 01:02:21;;;;;;;10.80;2.40;;;;;;;;;;2098976;28;20496;-70
2023/01/01 01:03:40;;;;;;;10.40;2.80;;;;;;;;;;2106450;28;20016;-70
2023/01/01 01:05:00;;;;;;;9.18;2.97;;;;;;;;;;2110455;28;20492;-71
2023/01/01 01:06:20;;;;;;;10.85;2.47;;;;;;;;;;2110557;28;20032;-70
2023/01/01 01:07:39;;;;;;;8.52;2.67;;;;;;;;;;2110732;28;20069;-70
2023/01/01 01:08:58;;;;;;;9.88;2.63;;;;;;;;;;2111108;28;20035;-71
2023/01/01 01:10:19;;;;;;;7.20;2.13;;;;;;;;;;2112099;28;20107;-70
2023/01/01 01:11:38;;;;;;;10.38;2.83;;;;;;;;;;2111166;28;20028;-70
2023/01/01 01:12:57;;;;;;;12.60;2.90;;;;;;;;;;2110906;28;20032;-70
2023/01/01 01:14:16;;;;;;;8.02;2.30;;;;;;;;;;2111687;28;20028;-70
2023/01/01 01:15:36;;;;;;;10.32;2.90;;;;;;;;;;2112188;28;20023;-70
2023/01/01 01:16:55;;;;;;;5.00;2.28;;;;;;;;;;2100502;28;20424;-70
2023/01/01 01:18:14;;;;;;;11.02;2.45;;;;;;;;;;2107049;28;20492;-70
2023/01/01 01:19:33;;;;;;;9.48;2.63;;;;;;;;;;2100025;28;21036;-71
2023/01/01 01:20:53;;;;;;;10.23;2.42;;;;;;;;;;2109286;28;20107;-70
2023/01/01 01:22:12;;;;;;;10.95;2.95;;;;;;;;;;2111687;28;20027;-70
2023/01/01 01:23:30;;;;;;;8.73;2.05;;;;;;;;;;2112123;28;20019;-70
2023/01/01 01:24:49;;;;;;;11.52;2.67;;;;;;;;;;2113412;28;20024;-70
2023/01/01 01:26:09;;;;;;;15.88;2.90;;;;;;;;;;2104004;28;20032;-70
2023/01/01 01:27:28;;;;;;;9.93;2.75;;;;;;;;;;2108839;28;20024;-71
2023/01/01 01:28:47;;;;;;;7.90;2.35;;;;;;;;;;2112784;28;20044;-70
2023/01/01 01:30:06;;;;;;;9.60;2.83;;;;;;;;;;2113022;28;20032;-71
2023/01/01 01:31:27;;;;;;;10.15;2.40;;;;;;;;;;2112700;28;20051;-71
2023/01/01 01:32:46;;;;;;;12.50;2.92;;;;;;;;;;2110074;28;20031;-70
2023/01/01 01:34:05;;;;;;;10.18;3.95;;;;;;;;;;2102185;28;20032;-71
2023/01/01 01:35:24;;;;;;;5.55;2.00;;;;;;;;;;2107444;28;20114;-70
2023/01/01 01:36:43;;;;;;;8.25;2.90;;;;;;;;;;2101269;28;20032;-70
2023/01/01 01:38:02;;;;;;;10.60;2.78;;;;;;;;;;2107408;28;20051;-70
2023/01/01 01:39:21;;;;;;;7.95;2.47;;;;;;;;;;2100294;28;20032;-70
2023/01/01 01:40:41;;;;;;;11.98;2.67;;;;;;;;;;2108220;28;20019;-71
2023/01/01 01:42:02;;;;;;;13.77;2.90;;;;;;;;;;2111836;28;20063;-70
2023/01/01 01:43:41;;;;;;;7.70;2.53;;;;;;;;;;2110218;28;20028;-70
2023/01/01 01:45:02;;;;;;;7.50;3.03;;;;;;;;;;2112275;28;20023;-70
2023/01/01 01:46:24;;;;;;;10.82;2.33;;;;;;;;;;2111056;28;20043;-70
2023/01/01 01:47:51;;;;;;;7.68;2.53;;;;;;;;;;2109940;28;20040;-71
2023/01/01 01:49:15;;;;;;;10.35;3.00;;;;;;;;;;2111454;28;20031;-71
2023/01/01 01:50:36;;;;;;;9.70;2.85;;;;;;;;;;2111422;28;20032;-70
2023/01/01 01:51:55;;;;;;;13.82;3.45;;;;;;;;;;2111509;28;20039;-70
2023/01/01 01:53:23;;;;;;;18.45;3.08;;;;;;;;;;2109844;28;20028;-70
2023/01/01 01:54:42;;;;;;;13.60;2.40;;;;;;;;;;2101686;28;20118;-70
2023/01/01 01:56:09;;;;;;;12.27;2.97;;;;;;;;;;2106749;28;20032;-70
2023/01/01 01:57:28;;;;;;;9.13;2.55;;;;;;;;;;2111193;28;20415;-71
2023/01/01 01:58:47;;;;;;;10.85;3.13;;;;;;;;;;2111146;28;20043;-71
2023/01/01 02:00:06;;;;;;;10.93;2.90;;;;;;;;;;2112263;28;20051;-70
2023/01/01 02:01:26;;;;;;;18.55;3.47;;;;;;;;;;2111271;28;20118;-71
2023/01/01 02:02:49;;;;;;;8.82;2.78;;;;;;;;;;2109977;28;20028;-70
2023/01/01 02:04:09;;;;;;;9.07;2.88;;;;;;;;;;2110923;28;20056;-70
2023/01/01 02:05:29;;;;;;;11.73;3.10;;;;;;;;;;2099973;28;20098;-71
2023/01/01 02:06:49;;;;;;;9.30;2.63;;;;;;;;;;2102037;28;20020;-70
2023/01/01 02:08:08;;;;;;;11.45;2.90;;;;;;;;;;2099835;28;20039;-70
2023/01/01 02:09:28;;;;;;;10.73;2.92;;;;;;;;;;2107247;28;20032;-70
2023/01/01 02:10:47;;;;;;;9.20;2.97;;;;;;;;;;2100988;28;20021;-71
2023/01/01 02:12:06;;;;;;;9.15;2.40;;;;;;;;;;2098332;28;20032;-71
2023/01/01 02:13:25;;;;;;;12.23;2.92;;;;;;;;;;2105898;28;20039;-71
2023/01/01 02:14:44;;;;;;;10.45;3.20;;;;;;;;;;2110497;28;20341;-70
2023/01/01 02:16:07;;;;;;;11.13;3.55;;;;;;;;;;2111405;28;20057;-70
2023/01/01 02:17:25;;;;;;;;;;;;;;;;;;2103588;28;20032;-71
2023/01/01 02:19:01;;;;;;;10.35;3.33;;;;;;;;;;2107256;28;20280;-71
2023/01/01 02:20:22;;;;;;;11.70;3.10;;;;;;;;;;2114047;28;20053;-70
2023/01/01 02:22:00;;;;;;;6.15;2.80;;;;;;;;;;2112723;28;20012;-70
2023/01/01 02:23:29;;;;;;;13.93;3.38;;;;;;;;;;2101825;28;20036;-70
2023/01/01 02:24:49;;;;;;;8.15;3.17;;;;;;;;;;2100399;28;20020;-70
2023/01/01 02:26:08;;;;;;;10.73;3.47;;;;;;;;;;2109564;28;20028;-71
2023/01/01 02:27:33;;;;;;;7.07;2.78;;;;;;;;;;2109042;28;20400;-71
2023/01/01 02:28:52;;;;;;;11.00;2.97;;;;;;;;;;2111610;28;20066;-70
2023/01/01 02:30:11;;;;;;;10.38;3.33;;;;;;;;;;2112943;28;20028;-70
2023/01/01 02:31:50;;;;;;;6.13;2.80;;;;;;;;;;2113259;28;20110;-71
2023/01/01 02:33:16;;;;;;;10.70;2.78;;;;;;;;;;2111105;28;21283;-70
2023/01/01 02:34:38;;;;;;;7.45;3.00;;;;;;;;;;2112015;28;20832;-70
2023/01/01 02:35:58;;;;;;;10.63;2.78;;;;;;;;;;2112625;28;20032;-71
2023/01/01 02:37:18;;;;;;;10.02;3.35;;;;;;;;;;2113179;28;20120;-70
2023/01/01 02:38:45;;;;;;;10.90;2.90;;;;;;;;;;2111401;28;20127;-70
2023/01/01 02:40:05;;;;;;;12.98;3.05;;;;;;;;;;2101085;28;20473;-71
2023/01/01 02:41:29;;;;;;;7.68;3.35;;;;;;;;;;2108876;28;20074;-70
2023/01/01 02:42:48;;;;;;;13.10;3.70;;;;;;;;;;2113261;28;20023;-70
2023/01/01 02:44:08;;;;;;;9.15;3.17;;;;;;;;;;2111839;28;20031;-70
2023/01/01 02:45:27;;;;;;;9.10;2.78;;;;;;;;;;2112343;28;20406;-70
2023/01/01 02:46:46;;;;;;;10.55;2.40;;;;;;;;;;2111547;28;20028;-70
2023/01/01 02:48:06;;;;;;;9.30;3.53;;;;;;;;;;2110889;28;20484;-70
2023/01/01 02:49:26;;;;;;;11.38;3.75;;;;;;;;;;2113095;28;20047;-71
2023/01/01 02:50:45;;;;;;;15.13;3.08;;;;;;;;;;2102633;28;20118;-70
2023/01/01 02:52:07;;;;;;;9.85;2.95;;;;;;;;;;2099709;28;20459;-71
2023/01/01 02:53:30;;;;;;;7.95;2.90;;;;;;;;;;2107548;28;20024;-70
2023/01/01 02:55:25;;;;;;;10.43;3.03;;;;;;;;;;2112472;28;20035;-70
2023/01/01 02:56:44;;;;;;;;;;;;;;;;;;2075755;28;20045;-71
2023/01/01 03:00:18;;;;;;;6.60;2.95;;;;;;;;;;2075554;28;19912;-71
2023/01/01 03:01:41;;;;;;;9.57;2.95;;;;;;;;;;2113269;28;20547;-70
2023/01/01 03:03:19;;;;;;;9.18;2.65;;;;;;;;;;2110946;28;20036;-71
2023/01/01 03:05:00;;;;;;;11.93;3.30;;;;;;;;;;2112070;28;20028;-70
2023/01/01 03:06:33;;;;;;;12.40;3.58;;;;;;;;;;2100527;28;20020;-70
2023/01/01 03:08:03;;;;;;;11.75;3.00;;;;;;;;;;2110143;28;20483;-70
2023/01/01 03:09:28;;;;;;;12.25;3.00;;;;;;;;;;2100362;28;20032;-70
2023/01/01 03:10:52;;;;;;;10.07;3.00;;;;;;;;;;2109210;28;20118;-70
2023/01/01 03:12:38;;;;;;;12.77;3.35;;;;;;;;;;2110181;28;20031;-70
2023/01/01 03:14:05;;;;;;;9.07;2.92;;;;;;;;;;2111655;28;20048;-71
2023/01/01 03:15:43;;;;;;;9.50;3.03;;;;;;;;;;2112942;28;20055;-71
2023/01/01 03:17:05;;;;;;;9.35;3.05;;;;;;;;;;2103345;28;20040;-70
2023/01/01 03:18:30;;;;;;;8.57;3.05;;;;;;;;;;2108736;28;20036;-71
2023/01/01 03:19:50;;;;;;;8.23;2.80;;;;;;;;;;2111249;28;20111;-70
2023/01/01 03:21:10;;;;;;;10.35;2.47;;;;;;;;;;2111807;28;20020;-71
2023/01/01 03:22:31;;;;;;;7.78;2.72;;;;;;;;;;2111286;28;20016;-70
2023/01/01 03:23:53;;;;;;;8.90;3.15;;;;;;;;;;2111252;28;20019;-70
2023/01/01 03:25:24;;;;;;;10.85;2.50;;;;;;;;;;2104320;28;20630;-70
2023/01/01 03:26:45;;;;;;;6.20;3.08;;;;;;;;;;2100564;28;20040;-70
2023/01/01 03:28:24;;;;;;;9.80;3.40;;;;;;;;;;2106442;28;20070;-70
2023/01/01 03:29:44;;;;;;;8.32;2.97;;;;;;;;;;2108044;28;20032;-70
2023/01/01 03:31:03;;;;;;;6.57;2.70;;;;;;;;;;2111998;28;20032;-71
2023/01/01 03:32:59;;;;;;;10.32;2.85;;;;;;;;;;2112270;28;20036;-70
2023/01/01 03:34:10;;;;;;;9.80;3.42;;;;;;;;;;2112919;28;20103;-71
2023/01/01 03:35:33;;;;;;;9.68;3.60;;;;;;;;;;2112502;28;20102;-71
2023/01/01 03:36:55;;;;;;;9.18;3.08;;;;;;;;;;2112183;28;20085;-70
2023/01/01 03:38:19;;;;;;;4.75;2.67;;;;;;;;;;2111052;28;20024;-70
2023/01/01 03:39:42;;;;;;;10.52;2.85;;;;;;;;;;2110615;28;20019;-70
2023/01/01 03:41:05;;;;;;;7.93;3.28;;;;;;;;;;2101096;28;20120;-70
2023/01/01 03:42:50;;;;;;;9.70;2.70;;;;;;;;;;2106279;28;20032;-70
2023/01/01 03:44:18;;;;;;;10.35;2.97;;;;;;;;;;2101760;28;20106;-71
2023/01/01 03:45:39;;;;;;;8.15;2.70;;;;;;;;;;2108938;28;20114;-70
2023/01/01 03:46:58;;;;;;;7.72;3.63;;;;;;;;;;2109700;28;20024;-70
2023/01/01 03:48:17;;;;;;;6.97;3.20;;;;;;;;;;2110378;28;20027;-70
2023/01/01 03:49:36;;;;;;;7.97;3.05;;;;;;;;;;2109002;28;20028;-70
2023/01/01 03:51:07;;;;;;;7.97;2.75;;;;;;;;;;2100178;28;20107;-71
2023/01/01 03:52:29;;;;;;;12.77;2.78;;;;;;;;;;2107902;28;20110;-70
2023/01/01 03:53:51;;;;;;;7.05;2.63;;;;;;;;;;2109661;28;20106;-70
2023/01/01 03:55:16;;;;;;;9.82;3.10;;;;;;;;;;2110242;28;20032;-71
2023/01/01 03:56:35;;;;;;;10.45;2.67;;;;;;;;;;2099558;28;20504;-71
2023/01/01 03:57:54;;;;;;;8.27;3.08;;;;;;;;;;2098094;28;20036;-71
2023/01/01 03:59:32;;;;;;;10.73;3.10;;;;;;;;;;2106031;28;20024;-70
2023/01/01 04:01:02;;;;;;;8.73;2.65;;;;;;;;;;2112661;28;20031;-70
2023/01/01 04:02:25;;;;;;;10.18;3.17;;;;;;;;;;2110930;27;20028;-70
2023/01/01 04:03:44;;;;;;;8.20;3.05;;;;;;;;;;2101107;28;20040;-70
2023/01/01 04:05:06;;;;;;;8.45;3.35;;;;;;;;;;2106502;28;20044;-70
2023/01/01 04:06:25;;;;;;;6.07;3.08;;;;;;;;;;2111258;28;20019;-70
2023/01/01 04:07:45;;;;;;;8.05;3.15;;;;;;;;;;2099788;28;20040;-70
2023/01/01 04:09:07;;;;;;;9.45;3.70;;;;;;;;;;2097981;28;20128;-70
2023/01/01 04:10:28;;;;;;;7.18;2.88;;;;;;;;;;2107871;28;20126;-71
2023/01/01 04:12:06;;;;;;;13.15;2.97;;;;;;;;;;2101860;28;20027;-71
2023/01/01 04:13:24;;;;;;;11.48;3.35;;;;;;;;;;2109172;28;20392;-71
2023/01/01 04:14:43;;;;;;;6.95;2.90;;;;;;;;;;2101953;28;20082;-70
2023/01/01 04:16:02;;;;;;;8.73;3.22;;;;;;;;;;2108587;28;20488;-70
2023/01/01 04:17:21;;;;;;;12.20;2.70;;;;;;;;;;2111089;28;20123;-71
2023/01/01 04:18:40;;;;;;;10.15;3.05;;;;;;;;;;2110370;28;20028;-70
2023/01/01 04:19:59;;;;;;;8.73;3.33;;;;;;;;;;2110410;28;20391;-71
2023/01/01 04:21:18;;;;;;;10.02;2.97;;;;;;;;;;2112393;28;20028;-70
2023/01/01 04:22:37;;;;;;;11.40;3.42;;;;;;;;;;2112344;28;20023;-70
2023/01/01 04:23:56;;;;;;;9.55;3.30;;;;;;;;;;2112178;28;20031;-70
2023/01/01 04:25:18;;;;;;;5.80;2.92;;;;;;;;;;2110307;28;20031;-70
2023/01/01 04:26:37;;;;;;;12.45;2.88;;;;;;;;;;2111532;28;20020;-70
2023/01/01 04:27:57;;;;;;;11.25;2.83;;;;;;;;;;2110460;28;20066;-71
2023/01/01 04:29:16;;;;;;;10.43;2.92;;;;;;;;;;2111843;28;20020;-70
2023/01/01 04:30:35;;;;;;;10.00;3.30;;;;;;;;;;2110913;28;20035;-70
2023/01/01 04:31:54;;;;;;;6.60;2.28;;;;;;;;;;2111604;28;20099;-70
2023/01/01 04:33:13;;;;;;;9.98;2.90;;;;;;;;;;2110398;28;20106;-70
2023/01/01 04:34:32;;;;;;;6.70;2.78;;;;;;;;;;2100747;28;20047;-70
2023/01/01 04:35:52;;;;;;;7.43;2.45;;;;;;;;;;2108030;28;20020;-70
2023/01/01 04:37:11;;;;;;;8.93;2.85;;;;;;;;;;2111626;28;20414;-70
2023/01/01 04:38:30;;;;;;;11.40;2.65;;;;;;;;;;2110640;28;20476;-70
2023/01/01 04:39:49;;;;;;;10.25;2.90;;;;;;;;;;2109698;28;20111;-70
2023/01/01 04:41:08;;;;;;;8.18;3.03;;;;;;;;;;2110758;28;20020;-70
2023/01/01 04:42:27;;;;;;;6.03;2.50;;;;;;;;;;2111987;28;20472;-70
2023/01/01 04:43:49;;;;;;;9.27;2.63;;;;;;;;;;2110493;28;20024;-70
2023/01/01 04:45:11;;;;;;;8.43;2.35;;;;;;;;;;2111960;28;20496;-69
2023/01/01 04:46:30;;;;;;;8.60;2.72;;;;;;;;;;2102648;28;20392;-69
2023/01/01 04:47:49;;;;;;;6.63;2.30;;;;;;;;;;2108780;28;20548;-70
2023/01/01 04:49:08;;;;;;;4.80;1.85;;;;;;;;;;2112841;28;20027;-70
2023/01/01 04:50:27;;;;;;;6.03;2.45;;;;;;;;;;2111386;28;20052;-70
2023/01/01 04:51:46;;;;;;;4.57;2.28;;;;;;;;;;2111094;28;20048;-70
2023/01/01 04:53:05;;;;;;;6.78;2.42;;;;;;;;;;2108582;28;20515;-70
2023/01/01 04:54:24;;;;;;;6.10;2.45;;;;;;;;;;2112631;28;20039;-70
2023/01/01 04:55:43;;;;;;;6.13;2.60;;;;;;;;;;2112903;28;20023;-70
2023/01/01 04:57:02;;;;;;;4.65;2.33;;;;;;;;;;2113748;28;20031;-70
2023/01/01 04:58:20;;;;;;;5.43;2.33;;;;;;;;;;2112167;28;20021;-70
2023/01/01 04:59:40;;;;;;;10.98;3.22;;;;;;;;;;2112911;28;20036;-70
2023/01/01 05:00:58;;;;;;;7.63;2.65;;;;;;;;;;2111621;28;20063;-70
2023/01/01 05:02:17;;;;;;;7.88;2.58;;;;;;;;;;2112426;28;20024;-70
2023/01/01 05:03:36;;;;;;;5.75;2.28;;;;;;;;;;2101345;28;20032;-70
2023/01/01 05:04:55;;;;;;;5.72;2.33;;;;;;;;;;2109063;28;20059;-70
2023/01/01 05:06:14;;;;;;;9.07;2.53;;;;;;;;;;2111653;28;20484;-70
2023/01/01 05:07:33;;;;;;;6.05;2.72;;;;;;;;;;2112614;28;20032;-70
2023/01/01 05:08:56;;;;;;;9.05;2.50;;;;;;;;;;2113705;28;20491;-70
2023/01/01 05:10:15;;;;;;;6.43;2.80;;;;;;;;;;2112816;28;20063;-70
2023/01/01 05:11:34;;;;;;;7.82;3.17;;;;;;;;;;2111584;28;20035;-71
2023/01/01 05:12:53;;;;;;;11.70;2.63;;;;;;;;;;2101609;28;20032;-70
2023/01/01 05:14:12;;;;;;;9.10;2.47;;;;;;;;;;2108845;28;20024;-70
2023/01/01 05:15:31;;;;;;;8.32;2.50;;;;;;;;;;2111843;28;20024;-70
2023/01/01 05:16:51;;;;;;;3.97;2.00;;;;;;;;;;2100350;28;20041;-70
2023/01/01 05:18:10;;;;;;;8.65;2.92;;;;;;;;;;2109185;28;20114;-70
2023/01/01 05:19:29;;;;;;;9.15;2.58;;;;;;;;;;2112931;28;20028;-71
2023/01/01 05:20:48;;;;;;;3.65;2.30;;;;;;;;;;2102159;28;20051;-70
2023/01/01 05:22:06;;;;;;;6.03;2.67;;;;;;;;;;2109093;28;20028;-70
2023/01/01 05:23:25;;;;;;;11.00;2.80;;;;;;;;;;2111066;28;20032;-70
2023/01/01 05:24:44;;;;;;;4.65;2.40;;;;;;;;;;2112625;28;20023;-70
2023/01/01 05:26:30;;;;;;;9.23;2.88;;;;;;;;;;2113606;28;20031;-70
2023/01/01 05:27:49;;;;;;;7.82;3.70;;;;;;;;;;2112715;28;20093;-70
2023/01/01 05:29:08;;;;;;;8.82;2.35;;;;;;;;;;2101325;28;20513;-71
2023/01/01 05:30:27;;;;;;;11.85;2.97;;;;;;;;;;2107579;28;20480;-70
2023/01/01 05:31:46;;;;;;;7.32;2.60;;;;;;;;;;2111461;28;21050;-70
2023/01/01 05:33:05;;;;;;;11.95;3.08;;;;;;;;;;2111484;28;20027;-70
2023/01/01 05:34:24;;;;;;;8.52;2.55;;;;;;;;;;2113011;28;20115;-70
2023/01/01 05:35:43;;;;;;;6.28;2.30;;;;;;;;;;2112045;28;20023;-70
2023/01/01 05:37:02;;;;;;;8.95;2.85;;;;;;;;;;2112277;28;20111;-70
2023/01/01 05:38:21;;;;;;;7.97;2.72;;;;;;;;;;2112870;28;20024;-69
2023/01/01 05:39:40;;;;;;;8.60;3.55;;;;;;;;;;2104744;28;20028;-70
2023/01/01 05:41:03;;;;;;;11.30;3.08;;;;;;;;;;2109051;28;20058;-70
2023/01/01 05:42:23;;;;;;;14.40;3.60;;;;;;;;;;2112062;28;20043;-70
2023/01/01 05:43:42;;;;;;;8.73;2.88;;;;;;;;;;2112413;28;20054;-70
2023/01/01 05:45:01;;;;;;;8.95;2.50;;;;;;;;;;2110454;28;20024;-70
2023/01/01 05:46:23;;;;;;;8.25;3.00;;;;;;;;;;2111186;28;20027;-70
2023/01/01 05:47:42;;;;;;;10.03;3.10;;;;;;;;;;2111510;28;20075;-70
2023/01/01 05:49:01;;;;;;;7.40;2.22;;;;;;;;;;2112108;28;20237;-70
2023/01/01 05:50:21;;;;;;;9.00;2.53;;;;;;;;;;2112397;28;20035;-70
2023/01/01 05:51:40;;;;;;;5.10;2.85;;;;;;;;;;2111001;28;20027;-70
2023/01/01 05:52:58;;;;;;;6.07;2.53;;;;;;;;;;2109650;28;20032;-69
2023/01/01 05:54:17;;;;;;;6.43;2.70;;;;;;;;;;2110970;28;20032;-70
2023/01/01 05:55:37;;;;;;;10.13;3.38;;;;;;;;;;2111362;28;20039;-70
2023/01/01 05:56:55;;;;;;;8.23;2.80;;;;;;;;;;2109475;28;20028;-70
2023/01/01 05:58:14;;;;;;;6.40;2.85;;;;;;;;;;2110949;28;20035;-70
2023/01/01 05:59:33;;;;;;;5.65;2.40;;;;;;;;;;2111827;28;20333;-70
2023/01/01 06:00:52;;;;;;;9.70;2.78;;;;;;;;;;2112146;28;20040;-70
2023/01/01 06:02:11;;;;;;;6.22;2.30;;;;;;;;;;2109072;28;20028;-70
2023/01/01 06:03:30;;;;;;;4.85;2.45;;;;;;;;;;2109871;28;20027;-70
2023/01/01 06:04:49;;;;;;;7.40;2.38;;;;;;;;;;2111133;28;20599;-70
2023/01/01 06:06:09;;;;;;;11.52;3.13;;;;;;;;;;2111064;28;20036;-70
2023/01/01 06:07:28;;;;;;;6.47;2.45;;;;;;;;;;2110995;28;20044;-70
2023/01/01 06:08:47;;;;;;;6.93;2.92;;;;;;;;;;2110386;28;20024;-70
2023/01/01 06:10:07;;;;;;;5.68;2.88;;;;;;;;;;2111585;28;20068;-69
2023/01/01 06:11:26;;;;;;;11.93;2.88;;;;;;;;;;2101753;28;20044;-70
2023/01/01 06:12:45;;;;;;;12.20;2.72;;;;;;;;;;2106770;28;20035;-70
2023/01/01 06:14:04;;;;;;;9.25;2.67;;;;;;;;;;2111422;28;20036;-70
2023/01/01 06:15:26;;;;;;;6.43;2.42;;;;;;;;;;2100708;28;20068;-70
2023/01/01 06:16:45;;;;;;;11.98;2.97;;;;;;;;;;2108363;28;20044;-70
2023/01/01 06:18:04;;;;;;;5.95;2.70;;;;;;;;;;2100211;28;20048;-70
2023/01/01 06:19:23;;;;;;;4.65;2.40;;;;;;;;;;2106308;28;20107;-70
2023/01/01 06:20:42;;;;;;;10.15;2.75;;;;;;;;;;2110295;28;20392;-70
2023/01/01 06:22:01;;;;;;;7.53;3.03;;;;;;;;;;2109993;28;20027;-70
2023/01/01 06:23:21;;;;;;;4.45;2.72;;;;;;;;;;2109134;28;20035;-70
2023/01/01 06:24:40;;;;;;;7.90;2.65;;;;;;;;;;2111664;28;20539;-70
2023/01/01 06:26:12;;;;;;;8.88;2.65;;;;;;;;;;2111012;28;20106;-70
2023/01/01 06:27:33;;;;;;;4.35;2.47;;;;;;;;;;2109811;28;20027;-70
2023/01/01 06:28:52;;;;;;;7.10;2.33;;;;;;;;;;2109665;28;20044;-70
2023/01/01 06:30:11;;;;;;;5.72;2.40;;;;;;;;;;2110879;28;20428;-72
2023/01/01 06:31:30;;;;;;;4.80;2.42;;;;;;;;;;2111191;28;20032;-72
2023/01/01 06:32:49;;;;;;;8.52;2.60;;;;;;;;;;2108522;28;20040;-70
2023/01/01 06:34:08;;;;;;;7.47;3.00;;;;;;;;;;2100408;28;20036;-70
2023/01/01 06:35:27;;;;;;;5.65;2.40;;;;;;;;;;2107663;28;20031;-70
2023/01/01 06:36:46;;;;;;;6.07;2.45;;;;;;;;;;2110093;28;20071;-70
2023/01/01 06:38:05;;;;;;;8.02;2.95;;;;;;;;;;2108237;28;20039;-70
2023/01/01 06:39:24;;;;;;;9.07;2.30;;;;;;;;;;2103339;28;20024;-70
2023/01/01 06:40:42;;;;;;;5.95;2.42;;;;;;;;;;2107891;28;20476;-70
2023/01/01 06:42:01;;;;;;;10.30;2.92;;;;;;;;;;2112000;28;20487;-70
2023/01/01 06:43:20;;;;;;;8.52;2.88;;;;;;;;;;2110191;28;20058;-70
2023/01/01 06:44:39;;;;;;;6.63;2.88;;;;;;;;;;2112888;28;20023;-70
2023/01/01 06:46:03;;;;;;;6.68;2.40;;;;;;;;;;2112570;28;20032;-70
2023/01/01 06:47:22;;;;;;;9.35;2.55;;;;;;;;;;2113817;27;20027;-70
2023/01/01 06:48:41;;;;;;;6.25;2.50;;;;;;;;;;2111484;28;20063;-70
2023/01/01 06:50:00;;;;;;;6.40;2.67;;;;;;;;;;2110894;28;20028;-70
2023/01/01 06:51:20;;;;;;;8.40;2.45;;;;;;;;;;2104240;28;20028;-70
2023/01/01 06:52:39;;;;;;;7.10;2.88;;;;;;;;;;2108654;28;20500;-70
2023/01/01 06:53:59;;;;;;;10.57;3.25;;;;;;;;;;2112704;28;20044;-70
2023/01/01 06:55:18;;;;;;;9.18;3.28;;;;;;;;;;2112178;28;20027;-70
2023/01/01 06:56:37;;;;;;;8.43;2.55;;;;;;;;;;2102255;28;20114;-70
2023/01/01 06:57:56;;;;;;;6.45;2.60;;;;;;;;;;2106967;28;20492;-70
2023/01/01 06:59:16;;;;;;;7.43;3.13;;;;;;;;;;2112586;28;20500;-70
2023/01/01 07:00:35;;;;;;;8.75;2.97;;;;;;;;;;2112392;28;20019;-70
2023/01/01 07:01:53;;;;;;;7.63;2.90;;;;;;;;;;2111218;28;20024;-70
2023/01/01 07:03:13;;;;;;;6.88;2.53;;;;;;;;;;2110490;28;20028;-71
2023/01/01 07:04:31;;;;;;;15.05;2.88;;;;;;;;;;2102565;28;20024;-70
2023/01/01 07:05:50;;;;;;;10.05;3.38;;;;;;;;;;2109553;28;20384;-71
2023/01/01 07:07:09;;;;;;;4.60;2.50;;;;;;;;;;2112195;28;20028;-70
2023/01/01 07:08:28;;;;;;;6.13;2.92;;;;;;;;;;2110988;28;20422;-70
2023/01/01 07:09:47;;;;;;;7.72;2.53;;;;;;;;;;2111729;28;20047;-71
2023/01/01 07:11:06;;;;;;;7.90;2.83;;;;;;;;;;2112032;28;20036;-70
2023/01/01 07:12:25;;;;;;;5.90;2.45;;;;;;;;;;2100601;28;20036;-70
2023/01/01 07:13:44;;;;;;;5.55;2.47;;;;;;;;;;2105932;28;20414;-70
2023/01/01 07:15:03;;;;;;;6.00;3.65;;;;;;;;;;2112447;28;20085;-71
2023/01/01 07:16:22;;;;;;;5.38;2.72;;;;;;;;;;2103226;28;20504;-70
2023/01/01 07:17:41;;;;;;;6.30;3.20;;;;;;;;;;2099306;28;20119;-70
2023/01/01 07:19:00;;;;;;;5.95;3.00;;;;;;;;;;2107363;28;20032;-70
2023/01/01 07:20:19;;;;;;;7.47;3.25;;;;;;;;;;2101751;28;20031;-70
2023/01/01 07:21:43;;;;;;;6.05;2.50;;;;;;;;;;2108562;28;20031;-70
2023/01/01 07:23:02;;;;;;;8.50;2.83;;;;;;;;;;2110130;28;20019;-70
2023/01/01 07:24:21;;;;;;;5.68;2.90;;;;;;;;;;2112191;28;20020;-70
2023/01/01 07:25:41;;;;;;;8.52;3.10;;;;;;;;;;2112822;28;20015;-70
2023/01/01 07:27:00;;;;;;;7.20;3.13;;;;;;;;;;2111918;28;20590;-71
2023/01/01 07:28:19;;;;;;;7.53;3.17;;;;;;;;;;2099094;28;20044;-71
2023/01/01 07:29:38;;;;;;;9.20;3.50;;;;;;;;;;2108504;28;20027;-70
2023/01/01 07:30:57;;;;;;;7.47;3.22;;;;;;;;;;2112773;28;20120;-70
2023/01/01 07:32:16;;;;;;;9.32;3.67;;;;;;;;;;2113265;28;20027;-70
2023/01/01 07:33:35;;;;;;;6.85;3.05;;;;;;;;;;2110297;28;20399;-70
2023/01/01 07:34:54;;;;;;;6.07;2.72;;;;;;;;;;2109646;28;20388;-70
2023/01/01 07:36:13;;;;;;;8.00;3.10;;;;;;;;;;2100527;28;20036;-71
2023/01/01 07:37:32;;;;;;;12.05;3.17;;;;;;;;;;2099089;28;20028;-70
2023/01/01 07:38:51;;;;;;;7.38;2.95;;;;;;;;;;2106519;28;20032;-70
2023/01/01 07:40:10;;;;;;;4.68;2.72;;;;;;;;;;2112369;28;20027;-71
2023/01/01 07:41:29;;;;;;;6.28;2.97;;;;;;;;;;2111683;28;20019;-71
2023/01/01 07:42:48;;;;;;;5.45;2.78;;;;;;;;;;2113249;28;20067;-70
2023/01/01 07:44:07;;;;;;;4.20;2.90;;;;;;;;;;2102710;28;20040;-70
2023/01/01 07:45:26;;;;;;;9.35;3.15;;;;;;;;;;2099163;28;20032;-70
2023/01/01 07:46:46;;;;;;;8.00;3.40;;;;;;;;;;2100132;28;20036;-70
2023/01/01 07:48:05;;;;;;;6.55;3.38;;;;;;;;;;2107495;28;20032;-70
2023/01/01 07:49:23;;;;;;;9.00;3.53;;;;;;;;;;2112169;28;20035;-70
2023/01/01 07:50:42;;;;;;;7.28;3.30;;;;;;;;;;2110966;28;20735;-71
2023/01/01 07:52:01;;;;;;;6.53;3.20;;;;;;;;;;2111312;28;20115;-71
2023/01/01 07:53:20;;;;;;;9.77;3.40;;;;;;;;;;2097255;28;20040;-70
2023/01/01 07:54:39;;;;;;;7.53;3.60;;;;;;;;;;2098841;28;20032;-70
2023/01/01 07:55:58;;;;;;;9.10;3.50;;;;;;;;;;2097211;28;20024;-70
2023/01/01 07:57:16;;;;;;;7.78;3.22;;;;;;;;;;2099593;28;20037;-71
2023/01/01 07:58:39;;;;;;;6.32;3.70;;;;;;;;;;2108210;28;20028;-71
2023/01/01 07:59:58;;;;;;;6.10;3.30;;;;;;;;;;2111589;28;20489;-70
2023/01/01 08:01:18;;;;;;;9.23;3.40;;;;;;;;;;2110286;28;20032;-71
2023/01/01 08:02:37;;;;;;;7.00;3.42;;;;;;;;;;2101301;28;20485;-70
2023/01/01 08:03:56;;;;;;;6.45;3.38;;;;;;;;;;2099329;28;20040;-71
2023/01/01 08:05:15;;;;;;;8.63;3.17;;;;;;;;;;2107262;28;20129;-70
2023/01/01 08:06:36;;;;;;;7.70;3.53;;;;;;;;;;2111953;28;20035;-70